Time;durP1;ratioP1;P1;durP2;ratioP2;P2;SDS_P1;SDS_P2;PMS_P1;PMS_P2;Temp;Humidity;BMP_temperature;BMP_pressure;BME280_temperature;BME280_humidity;BME280_pressure;Samples;Min_cycle;Max_cycle;Signal;HPM_P1;HPM_P2
2023/01/09 00:01:51;;;;;;;;;;;;;;;7.06;100.00;98230.19;4987517;28;19922;-58
2023/01/09 00:04:17;;;;;;;;;;;;;;;7.10;100.00;98225.69;4971892;28;20431;-58
2023/01/09 00:06:45;;;;;;;;;;;;;;;7.08;100.00;98222.41;4973565;28;19976;-58
2023/01/09 00:09:10;;;;;;;;;;;;;;;7.08;100.00;98223.25;4974484;28;20016;-58
2023/01/09 00:11:36;;;;;;;;;;;;;;;7.10;100.00;98220.56;5005089;28;20399;-58
2023/01/09 00:14:01;;;;;;;;;;;;;;;7.10;100.00;98210.34;5015731;28;19929;-58
2023/01/09 00:16:26;;;;;;;;;;;;;;;7.03;100.00;98204.88;5020361;28;19943;-58
2023/01/09 00:18:52;;;;;;;;;;;;;;;6.97;100.00;98207.03;5021334;28;19925;-58
2023/01/09 00:21:17;;;;;;;;;;;;;;;6.98;100.00;98201.00;5020163;28;20379;-58
2023/01/09 00:23:43;;;;;;;;;;;;;;;7.00;100.00;98199.94;5003756;28;19971;-58
2023/01/09 00:26:12;;;;;;;;;;;;;;;7.12;100.00;98193.16;4993046;28;19929;-58
2023/01/09 00:28:37;;;;;;;;;;;;;;;7.14;100.00;98193.84;4993405;28;20011;-58
2023/01/09 00:31:04;;;;;;;;;;;;;;;7.22;100.00;98190.78;5011728;28;20005;-58
2023/01/09 00:33:31;;;;;;;;;;;;;;;7.14;100.00;98186.19;5021446;28;20369;-58
2023/01/09 00:35:56;;;;;;;;;;;;;;;7.19;100.00;98184.13;4999191;28;19924;-58
2023/01/09 00:38:22;;;;;;;;;;;;;;;7.15;100.00;98185.25;5011025;28;20339;-58
2023/01/09 00:40:47;;;;;;;;;;;;;;;7.14;100.00;98178.50;5014906;28;20512;-58
2023/01/09 00:43:12;;;;;;;;;;;;;;;7.08;100.00;98174.66;5031668;28;19984;-58
2023/01/09 00:45:38;;;;;;;;;;;;;;;7.17;100.00;98175.75;5012511;28;20004;-58
2023/01/09 00:48:07;;;;;;;;;;;;;;;7.17;100.00;98168.09;5010034;28;19926;-58
2023/01/09 00:50:34;;;;;;;;;;;;;;;7.17;100.00;98170.63;5010550;28;19920;-57
2023/01/09 00:53:01;;;;;;;;;;;;;;;7.17;100.00;98172.38;5008646;28;19922;-58
2023/01/09 00:55:26;;;;;;;;;;;;;;;7.15;100.00;98164.00;5002809;28;19917;-57
2023/01/09 00:57:51;;;;;;;;;;;;;;;7.18;100.00;98177.41;4996169;28;19924;-58
2023/01/09 01:00:17;;;;;;;;;;;;;;;7.18;100.00;98177.41;5000490;28;20014;-58
2023/01/09 01:02:42;;;;;;;;;;;;;;;7.17;100.00;98180.03;4998210;28;20289;-57
2023/01/09 01:07:52;;;;;;;;;;;;;;;7.36;100.00;98179.56;4989257;28;20361;-57
2023/01/09 01:10:21;;;;;;;;;;;;;;;7.32;100.00;98189.19;4993246;28;20017;-57
2023/01/09 01:12:47;;;;;;;;;;;;;;;7.25;100.00;98203.34;5038488;28;20368;-57
2023/01/09 01:15:12;;;;;;;;;;;;;;;7.23;100.00;98197.50;4999548;28;20005;-57
2023/01/09 01:17:39;;;;;;;;;;;;;;;7.24;100.00;98196.59;5011549;28;19921;-57
2023/01/09 01:20:04;;;;;;;;;;;;;;;7.07;100.00;98193.50;5001695;28;20020;-57
2023/01/09 01:22:30;;;;;;;;;;;;;;;7.06;100.00;98199.53;5026617;28;20345;-57
2023/01/09 01:24:55;;;;;;;;;;;;;;;7.11;100.00;98201.75;5010381;28;20292;-57
2023/01/09 01:27:20;;;;;;;;;;;;;;;7.04;100.00;98198.00;5012038;28;20088;-57
2023/01/09 01:29:46;;;;;;;;;;;;;;;7.00;100.00;98194.84;5011404;28;20380;-57
2023/01/09 01:32:11;;;;;;;;;;;;;;;7.03;100.00;98209.16;5033897;28;20015;-57
2023/01/09 01:34:36;;;;;;;;;;;;;;;7.00;100.00;98207.63;5011688;28;19918;-58
2023/01/09 01:37:01;;;;;;;;;;;;;;;7.01;100.00;98199.03;5002785;28;19956;-58
2023/01/09 01:39:27;;;;;;;;;;;;;;;6.90;100.00;98197.22;4998730;28;19925;-57
2023/01/09 01:41:52;;;;;;;;;;;;;;;6.78;100.00;98206.56;5010741;28;20397;-58
2023/01/09 01:44:36;;;;;;;;;;;;;;;6.79;100.00;98200.50;4995367;28;19922;-57
2023/01/09 01:47:01;;;;;;;;;;;;;;;6.84;100.00;98201.97;4992398;28;20350;-57
2023/01/09 01:49:26;;;;;;;;;;;;;;;6.84;100.00;98195.09;4993140;28;19960;-58
2023/01/09 01:51:52;;;;;;;;;;;;;;;6.80;100.00;98206.47;5011760;28;20004;-57
2023/01/09 01:54:20;;;;;;;;;;;;;;;6.74;100.00;98205.13;4996337;28;19918;-57
2023/01/09 01:56:49;;;;;;;;;;;;;;;6.72;100.00;98212.09;4993084;28;19921;-57
2023/01/09 01:59:20;;;;;;;;;;;;;;;6.63;100.00;98215.28;4996819;28;19929;-58
2023/01/09 02:01:49;;;;;;;;;;;;;;;6.58;100.00;98210.47;5028656;28;19987;-58
2023/01/09 02:04:14;;;;;;;;;;;;;;;6.55;100.00;98208.16;5014814;28;19973;-58
2023/01/09 02:06:40;;;;;;;;;;;;;;;6.42;100.00;98208.16;5000134;28;20000;-58
2023/01/09 02:09:06;;;;;;;;;;;;;;;6.43;100.00;98212.34;4992507;28;20288;-58
2023/01/09 02:11:32;;;;;;;;;;;;;;;6.42;100.00;98210.69;5006432;28;20360;-57
2023/01/09 02:13:58;;;;;;;;;;;;;;;6.42;100.00;98213.25;5000782;28;20012;-57
2023/01/09 02:16:26;;;;;;;;;;;;;;;6.36;100.00;98207.75;4992604;28;19918;-57
2023/01/09 02:19:04;;;;;;;;;;;;;;;6.29;100.00;98207.38;4994200;28;19918;-57
2023/01/09 02:21:32;;;;;;;;;;;;;;;6.33;100.00;98218.19;5006585;28;19925;-58
2023/01/09 02:24:08;;;;;;;;;;;;;;;6.27;100.00;98214.31;5000695;28;19926;-57
2023/01/09 02:26:40;;;;;;;;;;;;;;;6.25;100.00;98216.13;4992875;28;19956;-57
2023/01/09 02:29:18;;;;;;;;;;;;;;;6.24;100.00;98212.78;4992954;28;19925;-58
2023/01/09 02:31:56;;;;;;;;;;;;;;;6.20;100.00;98206.25;5009525;28;19927;-57
2023/01/09 02:34:33;;;;;;;;;;;;;;;6.17;100.00;98203.06;4994665;28;19917;-58
2023/01/09 02:36:58;;;;;;;;;;;;;;;5.98;100.00;98201.72;4991875;28;19917;-57
2023/01/09 02:39:23;;;;;;;;;;;;;;;5.97;100.00;98200.88;4992091;28;19933;-60
2023/01/09 02:42:04;;;;;;;;;;;;;;;5.90;100.00;98207.31;5029191;28;20442;-57
2023/01/09 02:44:30;;;;;;;;;;;;;;;5.87;100.00;98210.06;5011400;28;19928;-57
2023/01/09 02:46:58;;;;;;;;;;;;;;;5.93;100.00;98217.31;5011244;28;20345;-58
2023/01/09 02:49:24;;;;;;;;;;;;;;;5.94;100.00;98229.16;5009481;28;19936;-57
2023/01/09 02:51:58;;;;;;;;;;;;;;;5.94;100.00;98233.44;5032647;28;19932;-60
2023/01/09 02:54:29;;;;;;;;;;;;;;;5.93;100.00;98236.94;4997763;28;20017;-58
2023/01/09 02:57:08;;;;;;;;;;;;;;;5.87;100.00;98239.88;4995346;28;19921;-57
2023/01/09 02:59:52;;;;;;;;;;;;;;;5.92;100.00;98240.41;5000842;28;20300;-57
2023/01/09 03:02:33;;;;;;;;;;;;;;;5.96;100.00;98232.41;5005566;28;19929;-57
2023/01/09 03:05:05;;;;;;;;;;;;;;;5.93;100.00;98247.94;5026992;28;20296;-57
2023/01/09 03:07:40;;;;;;;;;;;;;;;5.88;100.00;98250.00;4994894;28;19929;-58
2023/01/09 03:10:11;;;;;;;;;;;;;;;5.89;100.00;98256.72;4985899;28;19922;-58
2023/01/09 03:12:37;;;;;;;;;;;;;;;5.85;100.00;98251.91;5009097;28;19996;-58
2023/01/09 03:15:03;;;;;;;;;;;;;;;5.85;100.00;98260.38;4996369;28;20009;-58
2023/01/09 03:17:40;;;;;;;;;;;;;;;5.78;100.00;98259.97;4995825;28;19917;-57
2023/01/09 03:20:07;;;;;;;;;;;;;;;5.80;100.00;98270.91;5018559;28;19921;-57
2023/01/09 03:22:32;;;;;;;;;;;;;;;5.80;100.00;98268.34;5025319;28;19940;-58
2023/01/09 03:24:58;;;;;;;;;;;;;;;5.85;100.00;98277.44;4995743;28;19918;-58
2023/01/09 03:27:23;;;;;;;;;;;;;;;5.84;100.00;98281.69;4995102;28;20396;-57
2023/01/09 03:29:48;;;;;;;;;;;;;;;5.89;100.00;98286.50;4996558;28;19936;-58
2023/01/09 03:32:13;;;;;;;;;;;;;;;5.90;100.00;98294.06;5017003;28;19932;-58
2023/01/09 03:34:39;;;;;;;;;;;;;;;5.89;100.00;98289.91;4995917;28;19925;-58
2023/01/09 03:37:04;;;;;;;;;;;;;;;5.92;100.00;98296.53;4994993;28;20723;-58
2023/01/09 03:39:30;;;;;;;;;;;;;;;5.86;100.00;98302.84;4995679;28;20032;-58
2023/01/09 03:41:55;;;;;;;;;;;;;;;5.86;100.00;98314.81;5015466;28;19925;-58
2023/01/09 03:44:21;;;;;;;;;;;;;;;5.85;100.00;98308.84;4997668;28;19930;-58
2023/01/09 03:46:46;;;;;;;;;;;;;;;5.81;100.00;98304.88;4995304;28;19918;-57
2023/01/09 03:49:12;;;;;;;;;;;;;;;5.79;100.00;98304.97;4996747;28;19951;-57
2023/01/09 03:51:37;;;;;;;;;;;;;;;5.84;100.00;98308.97;5010724;28;19928;-57
2023/01/09 03:54:03;;;;;;;;;;;;;;;5.88;100.00;98310.41;5002623;28;19918;-58
2023/01/09 03:56:28;;;;;;;;;;;;;;;5.92;100.00;98312.66;4995333;28;19922;-58
2023/01/09 03:58:53;;;;;;;;;;;;;;;5.96;100.00;98323.50;4996184;28;20016;-58
2023/01/09 04:01:18;;;;;;;;;;;;;;;6.03;100.00;98314.56;5005481;28;19928;-58
2023/01/09 04:03:44;;;;;;;;;;;;;;;6.04;100.00;98321.31;5019711;28;19927;-58
2023/01/09 04:06:09;;;;;;;;;;;;;;;6.03;100.00;98318.84;5005440;28;20794;-57
2023/01/09 04:08:34;;;;;;;;;;;;;;;6.05;100.00;98322.13;4994295;28;19965;-57
2023/01/09 04:10:59;;;;;;;;;;;;;;;6.06;100.00;98323.75;5018575;28;20024;-58
2023/01/09 04:13:24;;;;;;;;;;;;;;;6.06;100.00;98327.13;4992704;28;19948;-58
2023/01/09 04:15:49;;;;;;;;;;;;;;;6.02;100.00;98330.78;4996403;28;19926;-61
2023/01/09 04:18:14;;;;;;;;;;;;;;;5.97;100.00;98341.25;5012935;28;20358;-57
2023/01/09 04:20:40;;;;;;;;;;;;;;;5.98;100.00;98348.03;4994523;28;19925;-57
2023/01/09 04:23:05;;;;;;;;;;;;;;;5.98;100.00;98353.13;5015630;28;19980;-58
2023/01/09 04:25:30;;;;;;;;;;;;;;;6.01;100.00;98361.53;4994001;28;20307;-58
2023/01/09 04:27:56;;;;;;;;;;;;;;;5.93;100.00;98369.63;4994326;28;19972;-59
2023/01/09 04:30:21;;;;;;;;;;;;;;;5.94;100.00;98372.09;4989490;28;19930;-58
2023/01/09 04:32:46;;;;;;;;;;;;;;;5.93;100.00;98370.44;5020851;28;20044;-58
2023/01/09 04:35:11;;;;;;;;;;;;;;;5.88;100.00;98374.19;4993902;28;19972;-58
2023/01/09 04:37:37;;;;;;;;;;;;;;;5.85;100.00;98382.06;4993501;28;19933;-58
2023/01/09 04:40:07;;;;;;;;;;;;;;;5.76;100.00;98391.91;4993638;28;20011;-59
2023/01/09 04:42:32;;;;;;;;;;;;;;;5.84;100.00;98400.81;5015393;28;19941;-58
2023/01/09 04:44:57;;;;;;;;;;;;;;;5.86;100.00;98402.38;4994031;28;19918;-58
2023/01/09 04:47:23;;;;;;;;;;;;;;;5.93;100.00;98418.94;4994384;28;20455;-58
2023/01/09 04:49:48;;;;;;;;;;;;;;;5.96;100.00;98426.38;4994009;28;19936;-58
2023/01/09 04:52:13;;;;;;;;;;;;;;;6.08;100.00;98413.84;5016294;28;19925;-58
2023/01/09 04:54:38;;;;;;;;;;;;;;;6.17;100.00;98420.91;4992502;28;20028;-57
2023/01/09 04:57:04;;;;;;;;;;;;;;;6.20;100.00;98423.28;4994094;28;19944;-58
2023/01/09 04:59:29;;;;;;;;;;;;;;;6.28;100.00;98420.22;4993089;28;19924;-57
2023/01/09 05:01:56;;;;;;;;;;;;;;;6.23;100.00;98423.06;5012757;28;19968;-58
2023/01/09 05:04:22;;;;;;;;;;;;;;;6.19;100.00;98423.34;4994786;28;19972;-58
2023/01/09 05:06:47;;;;;;;;;;;;;;;6.25;100.00;98428.91;4991267;28;19917;-59
2023/01/09 05:09:12;;;;;;;;;;;;;;;6.19;100.00;98436.09;4991737;28;19954;-58
2023/01/09 05:11:37;;;;;;;;;;;;;;;6.16;100.00;98443.97;5008029;28;19921;-58
2023/01/09 05:14:02;;;;;;;;;;;;;;;6.06;100.00;98459.84;5011758;28;19929;-58
2023/01/09 05:16:28;;;;;;;;;;;;;;;6.03;100.00;98462.59;4992671;28;20016;-57
2023/01/09 05:18:55;;;;;;;;;;;;;;;5.96;100.00;98456.22;4993448;28;19925;-57
2023/01/09 05:21:22;;;;;;;;;;;;;;;5.84;100.00;98469.72;5003710;28;19925;-57
2023/01/09 05:23:47;;;;;;;;;;;;;;;5.77;100.00;98464.19;5003486;28;19918;-57
2023/01/09 05:26:12;;;;;;;;;;;;;;;5.68;100.00;98469.84;4992481;28;19929;-57
2023/01/09 05:28:38;;;;;;;;;;;;;;;5.62;100.00;98469.28;4993348;28;19918;-58
2023/01/09 05:31:03;;;;;;;;;;;;;;;5.54;100.00;98475.78;4993184;28;19921;-57
2023/01/09 05:33:28;;;;;;;;;;;;;;;5.44;100.00;98466.09;4999969;28;19918;-57
2023/01/09 05:35:53;;;;;;;;;;;;;;;5.47;100.00;98468.50;5023429;28;20270;-57
2023/01/09 05:38:19;;;;;;;;;;;;;;;5.44;100.00;98468.66;4992508;28;20281;-57
2023/01/09 05:40:44;;;;;;;;;;;;;;;5.39;100.00;98470.66;4993837;28;19928;-57
2023/01/09 05:43:09;;;;;;;;;;;;;;;5.40;100.00;98476.59;5013000;28;20289;-57
2023/01/09 05:45:34;;;;;;;;;;;;;;;5.32;100.00;98479.56;4997948;28;20304;-57
2023/01/09 05:48:00;;;;;;;;;;;;;;;5.31;100.00;98481.31;5005968;28;19924;-57
2023/01/09 05:50:25;;;;;;;;;;;;;;;5.30;100.00;98483.97;4992077;28;19983;-57
2023/01/09 05:52:50;;;;;;;;;;;;;;;5.20;100.00;98491.34;5019592;28;19925;-57
2023/01/09 05:55:15;;;;;;;;;;;;;;;5.09;100.00;98497.03;4993458;28;19922;-56
2023/01/09 05:57:41;;;;;;;;;;;;;;;5.10;100.00;98493.59;4993887;28;20393;-57
2023/01/09 06:00:06;;;;;;;;;;;;;;;5.00;100.00;98511.13;4983449;28;20377;-57
2023/01/09 06:02:31;;;;;;;;;;;;;;;5.02;100.00;98511.03;5023513;28;19928;-57
2023/01/09 06:04:56;;;;;;;;;;;;;;;4.96;100.00;98514.78;4991461;28;19924;-57
2023/01/09 06:07:22;;;;;;;;;;;;;;;4.98;100.00;98514.69;5023103;28;19924;-58
2023/01/09 06:09:47;;;;;;;;;;;;;;;4.98;100.00;98509.59;4992507;28;20005;-58
2023/01/09 06:12:12;;;;;;;;;;;;;;;5.01;100.00;98515.34;4981918;28;19956;-57
2023/01/09 06:14:37;;;;;;;;;;;;;;;5.08;100.00;98518.34;4973084;28;20390;-57
2023/01/09 06:17:02;;;;;;;;;;;;;;;5.04;100.00;98526.25;4985344;28;19918;-58
2023/01/09 06:19:27;;;;;;;;;;;;;;;5.01;100.00;98524.69;4973099;28;20436;-58
2023/01/09 06:21:53;;;;;;;;;;;;;;;4.94;100.00;98524.22;5006574;28;19921;-58
2023/01/09 06:24:18;;;;;;;;;;;;;;;5.09;100.00;98529.38;4994358;28;19941;-57
2023/01/09 06:26:43;;;;;;;;;;;;;;;5.21;100.00;98533.75;4995178;28;20058;-58
2023/01/09 06:29:08;;;;;;;;;;;;;;;5.12;100.00;98529.19;4996010;28;20288;-57
2023/01/09 06:31:33;;;;;;;;;;;;;;;5.07;100.00;98528.63;5010738;28;20277;-58
2023/01/09 06:33:59;;;;;;;;;;;;;;;5.03;100.00;98524.63;5003395;28;20016;-58
2023/01/09 06:36:24;;;;;;;;;;;;;;;4.92;100.00;98523.47;4995397;28;19922;-57
2023/01/09 06:38:50;;;;;;;;;;;;;;;4.87;100.00;98538.22;4995945;28;19965;-57
2023/01/09 06:41:15;;;;;;;;;;;;;;;4.91;100.00;98543.97;4998243;28;19928;-57
2023/01/09 06:43:40;;;;;;;;;;;;;;;4.98;100.00;98540.16;5000621;28;20387;-58
2023/01/09 06:46:05;;;;;;;;;;;;;;;4.99;100.00;98550.25;4995674;28;19925;-58
2023/01/09 06:48:31;;;;;;;;;;;;;;;5.09;100.00;98550.56;4996237;28;19985;-57
2023/01/09 06:50:56;;;;;;;;;;;;;;;5.10;100.00;98547.13;5000957;28;19925;-58
2023/01/09 06:53:22;;;;;;;;;;;;;;;5.04;100.00;98549.19;5012812;28;20016;-58
2023/01/09 06:55:47;;;;;;;;;;;;;;;5.07;100.00;98549.00;5027659;28;20288;-59
2023/01/09 06:58:12;;;;;;;;;;;;;;;5.13;100.00;98546.13;4994750;28;19953;-58
2023/01/09 07:00:37;;;;;;;;;;;;;;;5.03;100.00;98550.09;4992157;28;19925;-58
2023/01/09 07:03:03;;;;;;;;;;;;;;;4.92;100.00;98548.97;5017973;28;19918;-58
2023/01/09 07:05:29;;;;;;;;;;;;;;;4.92;100.00;98553.25;4997660;28;19925;-58
2023/01/09 07:07:54;;;;;;;;;;;;;;;4.91;100.00;98555.00;5014078;28;20284;-58
2023/01/09 07:10:19;;;;;;;;;;;;;;;4.93;100.00;98563.34;5008645;28;19925;-58
2023/01/09 07:12:44;;;;;;;;;;;;;;;4.98;100.00;98566.47;5041795;28;20336;-58
2023/01/09 07:15:10;;;;;;;;;;;;;;;4.94;100.00;98572.63;5007037;28;19917;-58
2023/01/09 07:17:35;;;;;;;;;;;;;;;4.95;100.00;98576.84;5008406;28;19922;-58
2023/01/09 07:20:01;;;;;;;;;;;;;;;4.95;100.00;98573.44;5009476;28;20041;-58
2023/01/09 07:22:26;;;;;;;;;;;;;;;4.99;100.00;98575.75;5030663;28;19936;-58
2023/01/09 07:24:51;;;;;;;;;;;;;;;5.07;100.00;98587.25;5012925;28;20072;-58
2023/01/09 07:27:16;;;;;;;;;;;;;;;5.03;100.00;98584.03;5012904;28;19955;-58
2023/01/09 07:29:41;;;;;;;;;;;;;;;5.05;100.00;98589.06;5010788;28;19946;-59
2023/01/09 07:32:07;;;;;;;;;;;;;;;5.23;100.00;98602.50;5022190;28;19928;-58
2023/01/09 07:34:32;;;;;;;;;;;;;;;5.24;100.00;98604.16;5010951;28;20385;-58
2023/01/09 07:36:58;;;;;;;;;;;;;;;5.31;100.00;98611.34;5009428;28;19957;-59
2023/01/09 07:39:23;;;;;;;;;;;;;;;5.43;100.00;98609.00;5009759;28;19928;-59
2023/01/09 07:41:49;;;;;;;;;;;;;;;5.51;100.00;98617.06;5000133;28;21444;-58
2023/01/09 07:44:14;;;;;;;;;;;;;;;5.60;100.00;98624.16;4995602;28;19988;-58
2023/01/09 07:46:40;;;;;;;;;;;;;;;5.60;100.00;98633.56;5002207;28;20017;-57
2023/01/09 07:49:05;;;;;;;;;;;;;;;5.73;100.00;98631.09;5001684;28;19964;-58
2023/01/09 07:51:30;;;;;;;;;;;;;;;5.76;100.00;98633.50;5011542;28;20300;-59
2023/01/09 07:53:56;;;;;;;;;;;;;;;5.80;100.00;98633.22;5012659;28;20268;-59
2023/01/09 07:56:21;;;;;;;;;;;;;;;5.89;100.00;98639.53;5007930;28;19928;-58
2023/01/09 07:58:46;;;;;;;;;;;;;;;5.96;100.00;98632.31;5009401;28;19936;-58
2023/01/09 08:01:11;;;;;;;;;;;;;;;5.97;100.00;98627.13;5026803;28;20365;-58
2023/01/09 08:03:37;;;;;;;;;;;;;;;6.00;100.00;98638.09;5018392;28;19932;-59
2023/01/09 08:06:02;;;;;;;;;;;;;;;6.03;100.00;98632.78;5004523;28;20330;-59
2023/01/09 08:08:28;;;;;;;;;;;;;;;6.00;100.00;98630.44;4995513;28;20019;-58
2023/01/09 08:10:53;;;;;;;;;;;;;;;5.92;100.00;98633.41;4998478;28;19921;-58
2023/01/09 08:13:18;;;;;;;;;;;;;;;5.98;100.00;98623.69;5025461;28;20377;-58
2023/01/09 08:15:43;;;;;;;;;;;;;;;5.93;100.00;98623.13;5005564;28;19982;-59
2023/01/09 08:18:09;;;;;;;;;;;;;;;5.93;100.00;98630.78;5030650;28;20001;-57
2023/01/09 08:20:34;;;;;;;;;;;;;;;6.01;100.00;98627.78;5007974;28;19924;-58
2023/01/09 08:22:59;;;;;;;;;;;;;;;5.91;100.00;98630.03;5034680;28;20373;-58
2023/01/09 08:25:25;;;;;;;;;;;;;;;5.92;100.00;98630.88;5009756;28;19921;-58
2023/01/09 08:27:50;;;;;;;;;;;;;;;6.12;100.00;98632.25;5010486;28;19987;-60
2023/01/09 08:30:16;;;;;;;;;;;;;;;6.37;100.00;98635.91;4993604;28;19924;-58
2023/01/09 08:32:41;;;;;;;;;;;;;;;6.48;100.00;98633.50;5015266;28;19917;-58
2023/01/09 08:35:07;;;;;;;;;;;;;;;6.60;100.00;98634.50;4997066;28;19926;-58
2023/01/09 08:37:32;;;;;;;;;;;;;;;6.52;100.00;98640.06;5007457;28;20391;-58
2023/01/09 08:39:57;;;;;;;;;;;;;;;6.44;100.00;98640.53;4994731;28;19928;-58
2023/01/09 08:47:52;;;;;;;;;;;;;;;6.82;100.00;98662.06;4992936;28;19972;-58
2023/01/09 08:50:17;;;;;;;;;;;;;;;6.63;100.00;98662.41;4987255;28;19926;-59
2023/01/09 08:52:42;;;;;;;;;;;;;;;6.86;100.00;98662.72;5006437;28;20033;-59
2023/01/09 08:55:07;;;;;;;;;;;;;;;6.82;100.00;98664.63;4992383;28;20289;-58
2023/01/09 08:57:33;;;;;;;;;;;;;;;6.73;100.00;98662.66;5005132;28;20032;-59
2023/01/09 08:59:58;;;;;;;;;;;;;;;6.79;100.00;98669.94;4992857;28;19972;-59
2023/01/09 09:02:23;;;;;;;;;;;;;;;6.85;100.00;98667.00;5011226;28;19930;-58
2023/01/09 09:04:51;;;;;;;;;;;;;;;6.80;100.00;98666.47;5007046;28;19917;-58
2023/01/09 09:07:17;;;;;;;;;;;;;;;6.84;100.00;98659.44;5004944;28;19929;-58
2023/01/09 09:09:42;;;;;;;;;;;;;;;6.90;100.00;98662.44;4998241;28;20293;-58
2023/01/09 09:12:07;;;;;;;;;;;;;;;6.87;100.00;98665.19;5021572;28;19944;-58
2023/01/09 09:17:16;;;;;;;;;;;;;;;7.04;100.00;98666.66;4996881;28;20030;-58
2023/01/09 09:19:41;;;;;;;;;;;;;;;7.04;100.00;98663.31;5000794;28;20008;-58
2023/01/09 09:22:07;;;;;;;;;;;;;;;7.05;100.00;98660.66;5019044;28;19932;-58
2023/01/09 09:24:32;;;;;;;;;;;;;;;6.97;100.00;98667.16;5000136;28;19921;-58
2023/01/09 09:26:57;;;;;;;;;;;;;;;7.08;100.00;98673.25;4996578;28;20368;-59
2023/01/09 09:29:22;;;;;;;;;;;;;;;6.95;100.00;98664.72;5030346;28;19924;-60
2023/01/09 09:31:47;;;;;;;;;;;;;;;7.07;100.00;98671.63;5014622;28;19921;-59
2023/01/09 09:34:12;;;;;;;;;;;;;;;6.94;100.00;98668.97;5008192;28;20273;-58
2023/01/09 09:36:38;;;;;;;;;;;;;;;6.94;100.00;98675.84;5002834;28;19945;-59
2023/01/09 09:39:06;;;;;;;;;;;;;;;7.14;100.00;98674.59;5005759;28;19953;-58
2023/01/09 09:44:52;;;;;;;;;;;;;;;7.23;100.00;98673.19;5004138;28;19929;-58
2023/01/09 09:47:33;;;;;;;;;;;;;;;7.33;100.00;98674.25;4993380;28;19953;-59
2023/01/09 09:49:59;;;;;;;;;;;;;;;7.37;100.00;98678.25;5008955;28;19922;-59
2023/01/09 09:52:29;;;;;;;;;;;;;;;7.35;100.00;98686.94;5028614;28;19925;-59
2023/01/09 09:54:57;;;;;;;;;;;;;;;7.20;100.00;98684.44;5010005;28;19921;-59
2023/01/09 09:57:24;;;;;;;;;;;;;;;7.25;100.00;98686.69;4998181;28;20008;-59
2023/01/09 09:59:50;;;;;;;;;;;;;;;7.20;100.00;98683.63;5002378;28;19924;-62
2023/01/09 10:02:22;;;;;;;;;;;;;;;7.23;100.00;98688.53;5031192;28;20286;-59
2023/01/09 10:04:50;;;;;;;;;;;;;;;7.09;100.00;98689.41;4993661;28;20415;-59
2023/01/09 10:07:20;;;;;;;;;;;;;;;7.15;100.00;98683.91;5007955;28;19922;-59
2023/01/09 10:09:53;;;;;;;;;;;;;;;7.17;100.00;98686.34;5005292;28;19991;-59
2023/01/09 10:12:18;;;;;;;;;;;;;;;7.16;100.00;98680.44;5024787;28;19925;-60
2023/01/09 10:14:43;;;;;;;;;;;;;;;7.24;100.00;98687.63;5006691;28;20016;-60
2023/01/09 10:17:08;;;;;;;;;;;;;;;7.20;100.00;98683.63;5003232;28;20368;-59
2023/01/09 10:19:33;;;;;;;;;;;;;;;7.33;100.00;98681.09;5005792;28;20523;-59
2023/01/09 10:22:04;;;;;;;;;;;;;;;7.33;100.00;98684.50;5024314;28;19921;-59
2023/01/09 10:24:39;;;;;;;;;;;;;;;7.47;100.00;98682.75;5006118;28;19917;-59
2023/01/09 10:27:16;;;;;;;;;;;;;;;7.43;100.00;98682.16;5000969;28;19926;-59
2023/01/09 10:29:44;;;;;;;;;;;;;;;7.41;100.00;98674.56;4994877;28;19929;-61
2023/01/09 10:32:19;;;;;;;;;;;;;;;7.33;100.00;98663.19;5018501;28;20032;-59
2023/01/09 10:34:55;;;;;;;;;;;;;;;7.38;100.00;98679.06;4998817;28;19929;-59
2023/01/09 10:37:42;;;;;;;;;;;;;;;7.49;100.00;98679.22;4989893;28;19972;-59
2023/01/09 10:40:20;;;;;;;;;;;;;;;7.57;100.00;98678.72;4977672;28;19918;-60
2023/01/09 10:42:55;;;;;;;;;;;;;;;7.51;100.00;98674.78;5025526;28;19927;-58
2023/01/09 10:45:39;;;;;;;;;;;;;;;7.67;100.00;98661.00;4996058;28;19964;-60
2023/01/09 10:48:24;;;;;;;;;;;;;;;7.72;100.00;98656.41;4995781;28;19917;-59
2023/01/09 10:50:50;;;;;;;;;;;;;;;7.89;100.00;98661.22;5000100;28;20336;-60
2023/01/09 10:53:48;;;;;;;;;;;;;;;7.86;100.00;98665.72;5015865;28;19918;-59
2023/01/09 10:56:24;;;;;;;;;;;;;;;8.10;100.00;98668.41;4992410;28;20281;-59
2023/01/09 10:58:50;;;;;;;;;;;;;;;8.15;100.00;98665.50;5005995;28;19995;-59
2023/01/09 11:01:21;;;;;;;;;;;;;;;8.16;100.00;98660.31;5003571;28;20039;-59
2023/01/09 11:03:46;;;;;;;;;;;;;;;8.07;100.00;98650.69;5009086;28;19925;-59
2023/01/09 11:06:19;;;;;;;;;;;;;;;8.24;100.00;98640.09;4992042;28;19918;-59
2023/01/09 11:08:45;;;;;;;;;;;;;;;8.08;100.00;98644.63;4992884;28;19922;-58
2023/01/09 11:11:11;;;;;;;;;;;;;;;8.08;100.00;98655.69;4991373;28;19976;-58
2023/01/09 11:13:39;;;;;;;;;;;;;;;8.07;100.00;98656.63;5005134;28;20001;-59
2023/01/09 11:16:04;;;;;;;;;;;;;;;8.01;100.00;98659.59;4999985;28;19929;-58
2023/01/09 11:18:30;;;;;;;;;;;;;;;8.06;100.00;98655.00;4998681;28;19921;-58
2023/01/09 11:21:11;;;;;;;;;;;;;;;8.05;100.00;98661.03;5008384;28;19925;-58
2023/01/09 11:23:36;;;;;;;;;;;;;;;8.09;100.00;98664.22;5013334;28;20453;-58
2023/01/09 11:26:01;;;;;;;;;;;;;;;8.11;100.00;98664.91;5009475;28;20008;-58
2023/01/09 11:28:27;;;;;;;;;;;;;;;8.24;100.00;98662.34;5007244;28;20020;-58
2023/01/09 11:30:54;;;;;;;;;;;;;;;8.39;100.00;98660.47;5007941;28;20372;-58
2023/01/09 11:33:20;;;;;;;;;;;;;;;8.62;100.00;98660.66;5013243;28;19964;-59
2023/01/09 11:36:12;;;;;;;;;;;;;;;8.54;100.00;98667.13;5008251;28;20000;-58
2023/01/09 11:38:54;;;;;;;;;;;;;;;8.42;100.00;98669.69;5006658;28;19918;-59
2023/01/09 11:41:21;;;;;;;;;;;;;;;8.30;100.00;98659.38;5007861;28;20059;-59
2023/01/09 11:43:48;;;;;;;;;;;;;;;8.51;100.00;98662.22;5018371;28;19921;-59
2023/01/09 11:46:29;;;;;;;;;;;;;;;8.49;100.00;98653.81;5004909;28;20401;-59
2023/01/09 11:48:58;;;;;;;;;;;;;;;8.51;100.00;98659.66;4994606;28;19921;-60
2023/01/09 11:51:24;;;;;;;;;;;;;;;8.59;100.00;98658.31;4998053;28;19981;-57
2023/01/09 11:54:02;;;;;;;;;;;;;;;8.67;100.00;98656.03;5018573;28;19922;-60
2023/01/09 11:56:28;;;;;;;;;;;;;;;8.70;100.00;98666.09;5035834;28;19932;-57
2023/01/09 11:58:53;;;;;;;;;;;;;;;8.64;100.00;98664.75;5000134;28;19961;-57
2023/01/09 12:01:29;;;;;;;;;;;;;;;8.54;100.00;98672.25;5013666;27;19986;-57
2023/01/09 12:04:09;;;;;;;;;;;;;;;8.40;100.00;98667.25;4996715;28;20307;-56
2023/01/09 12:06:52;;;;;;;;;;;;;;;8.34;100.00;98667.66;5013101;28;20400;-56
2023/01/09 12:09:40;;;;;;;;;;;;;;;8.08;100.00;98676.16;4994385;28;19921;-57
2023/01/09 12:12:09;;;;;;;;;;;;;;;7.95;100.00;98682.22;5015274;28;19972;-56
2023/01/09 12:14:38;;;;;;;;;;;;;;;7.78;100.00;98685.88;4994580;28;19917;-56
2023/01/09 12:17:23;;;;;;;;;;;;;;;7.69;100.00;98698.38;5022939;28;20023;-56
2023/01/09 12:19:51;;;;;;;;;;;;;;;7.59;100.00;98699.88;5012160;28;19921;-56
2023/01/09 12:22:25;;;;;;;;;;;;;;;7.62;100.00;98696.34;5034791;28;20261;-56
2023/01/09 12:24:58;;;;;;;;;;;;;;;7.73;100.00;98687.00;5009025;28;19926;-56
2023/01/09 12:27:30;;;;;;;;;;;;;;;7.97;100.00;98701.69;5004209;28;19957;-56
2023/01/09 12:30:14;;;;;;;;;;;;;;;8.17;100.00;98696.97;5043796;28;19997;-56
2023/01/09 12:32:57;;;;;;;;;;;;;;;8.55;100.00;98691.03;5000587;28;20328;-57
2023/01/09 12:35:22;;;;;;;;;;;;;;;8.49;100.00;98684.56;5006625;28;20550;-57
2023/01/09 12:37:55;;;;;;;;;;;;;;;8.32;100.00;98672.91;5007429;28;19921;-58
2023/01/09 12:40:20;;;;;;;;;;;;;;;8.45;100.00;98677.19;4994966;28;20258;-55
2023/01/09 12:42:55;;;;;;;;;;;;;;;8.59;100.00;98684.75;5028349;28;20282;-56
2023/01/09 12:45:31;;;;;;;;;;;;;;;8.54;100.00;98682.50;4996736;28;19968;-55
2023/01/09 12:48:02;;;;;;;;;;;;;;;8.36;100.00;98682.00;5000743;28;19952;-56
2023/01/09 12:50:27;;;;;;;;;;;;;;;8.22;100.00;98682.13;5001785;28;19936;-55
2023/01/09 12:52:58;;;;;;;;;;;;;;;8.12;100.00;98683.66;5024840;28;19922;-56
2023/01/09 12:55:25;;;;;;;;;;;;;;;8.13;100.00;98693.81;5006353;28;19928;-57
2023/01/09 12:57:52;;;;;;;;;;;;;;;8.06;100.00;98697.69;5024346;28;20012;-59
2023/01/09 13:00:18;;;;;;;;;;;;;;;8.12;100.00;98704.16;5005950;28;19921;-55
2023/01/09 13:02:47;;;;;;;;;;;;;;;8.11;100.00;98705.06;5027052;28;20362;-55
2023/01/09 13:05:17;;;;;;;;;;;;;;;8.05;100.00;98707.13;5008985;28;20016;-55